Time;durP1;ratioP1;P1;durP2;ratioP2;P2;SDS_P1;SDS_P2;PMS_P1;PMS_P2;Temp;Humidity;BMP_temperature;BMP_pressure;BME280_temperature;BME280_humidity;BME280_pressure;Samples;Min_cycle;Max_cycle;Signal;HPM_P1;HPM_P2
2021/10/18 00:02:18;;;;;;;24.17;11.98;;;;;;;14.18;94.20;100339.88;4953095;28;20088;-89
2021/10/18 00:04:44;;;;;;;27.45;11.65;;;;;;;14.15;94.29;100324.06;4979520;28;20035;-89
2021/10/18 00:07:10;;;;;;;21.45;11.00;;;;;;;14.20;94.54;100326.16;4949504;28;20038;-91
2021/10/18 00:09:36;;;;;;;23.48;10.98;;;;;;;14.17;94.47;100321.16;4948221;28;20122;-92
2021/10/18 00:12:03;;;;;;;20.40;10.02;;;;;;;14.16;94.64;100331.16;4955146;28;20046;-90
2021/10/18 00:14:31;;;;;;;22.40;9.93;;;;;;;14.07;94.70;100308.91;4953468;28;20194;-90
2021/10/18 00:16:57;;;;;;;17.08;9.38;;;;;;;14.23;94.54;100315.72;4931289;28;20031;-90
2021/10/18 00:19:23;;;;;;;18.52;9.73;;;;;;;14.25;94.59;100313.66;4970058;28;20030;-91
2021/10/18 00:21:48;;;;;;;20.98;10.13;;;;;;;14.16;94.51;100301.41;4954910;28;20053;-91
2021/10/18 00:24:14;;;;;;;25.20;10.00;;;;;;;14.03;94.61;100283.34;4956433;28;20034;-90
2021/10/18 00:26:41;;;;;;;19.40;10.20;;;;;;;14.20;94.78;100304.53;4957492;28;20045;-90
2021/10/18 00:29:06;;;;;;;20.38;9.60;;;;;;;14.11;94.81;100278.75;4967127;28;20121;-90
2021/10/18 00:31:33;;;;;;;18.27;9.73;;;;;;;14.28;94.54;100298.88;4955237;28;20125;-90
2021/10/18 00:33:59;;;;;;;18.00;9.13;;;;;;;14.24;94.50;100294.97;4954355;28;20298;-90
2021/10/18 00:36:24;;;;;;;13.85;6.75;;;;;;;14.22;94.47;100280.81;4955491;28;20046;-90
2021/10/18 00:38:50;;;;;;;19.15;9.20;;;;;;;14.22;94.30;100276.22;4955417;28;20047;-90
2021/10/18 00:41:17;;;;;;;19.38;8.98;;;;;;;14.15;93.85;100261.88;4946541;28;20042;-90
2021/10/18 00:43:46;;;;;;;11.52;4.97;;;;;;;14.30;93.85;100267.06;4948588;28;20423;-91
2021/10/18 00:46:20;;;;;;;25.60;10.75;;;;;;;14.11;93.30;100225.50;4936501;28;20035;-90
2021/10/18 00:48:47;;;;;;;20.10;8.80;;;;;;;14.29;93.08;100254.59;4965264;28;20085;-91
2021/10/18 00:51:15;;;;;;;20.70;9.77;;;;;;;14.25;92.92;100247.94;4954377;28;20054;-91
2021/10/18 00:53:43;;;;;;;17.67;9.52;;;;;;;14.15;93.29;100242.13;4937449;28;20039;-90
2021/10/18 00:56:09;;;;;;;20.80;9.20;;;;;;;14.25;93.25;100264.16;4953828;28;20129;-91
2021/10/18 00:58:37;;;;;;;18.08;10.38;;;;;;;14.18;93.33;100236.28;4934623;28;20126;-91
2021/10/18 01:01:04;;;;;;;26.17;10.90;;;;;;;14.08;93.47;100221.38;4963377;28;20039;-90
2021/10/18 01:03:29;;;;;;;16.33;8.00;;;;;;;14.04;93.53;100219.28;4937195;28;20408;-90
2021/10/18 01:05:55;;;;;;;24.75;8.63;;;;;;;14.06;93.87;100212.63;4943037;28;20054;-90
2021/10/18 01:08:21;;;;;;;25.17;10.05;;;;;;;14.01;93.98;100193.50;4965593;28;20066;-90
2021/10/18 01:10:47;;;;;;;22.55;9.55;;;;;;;14.03;94.10;100188.72;4951751;28;20031;-91
2021/10/18 01:13:13;;;;;;;27.85;11.07;;;;;;;14.13;94.30;100209.06;4938411;28;20042;-90
2021/10/18 01:15:38;;;;;;;26.58;9.55;;;;;;;14.20;94.25;100218.00;4958812;28;20039;-90
2021/10/18 01:18:04;;;;;;;30.60;10.70;;;;;;;14.18;94.41;100206.56;4937920;28;20582;-90
2021/10/18 01:20:31;;;;;;;25.23;11.10;;;;;;;14.19;94.46;100195.53;4972405;28;20043;-90
2021/10/18 01:22:58;;;;;;;27.60;10.00;;;;;;;14.15;94.37;100182.66;4946661;28;20122;-91
2021/10/18 01:25:24;;;;;;;54.72;19.05;;;;;;;14.12;94.74;100181.22;4986320;28;20023;-91
2021/10/18 01:27:49;;;;;;;31.10;13.07;;;;;;;14.06;94.73;100157.75;4940812;28;20506;-90
2021/10/18 01:30:15;;;;;;;45.28;17.08;;;;;;;14.23;94.81;100174.31;4972135;28;20042;-90
2021/10/18 01:32:43;;;;;;;28.95;11.80;;;;;;;14.18;94.87;100157.88;4938468;28;20616;-89
2021/10/18 01:35:09;;;;;;;20.65;8.60;;;;;;;14.11;94.77;100135.47;4989666;28;20039;-91
2021/10/18 01:37:35;;;;;;;15.02;8.35;;;;;;;14.26;94.84;100153.09;4965182;28;20042;-92
2021/10/18 01:40:04;;;;;;;27.95;11.48;;;;;;;14.17;94.99;100123.78;4988751;28;20373;-90
2021/10/18 01:42:30;;;;;;;18.30;9.32;;;;;;;14.18;94.90;100111.91;4956974;28;20059;-89
2021/10/18 01:44:56;;;;;;;23.42;10.30;;;;;;;14.22;94.92;100107.75;4967758;28;20061;-90
2021/10/18 01:47:23;;;;;;;18.27;9.32;;;;;;;14.25;95.07;100120.84;4968151;28;20440;-91
2021/10/18 01:49:49;;;;;;;18.58;8.10;;;;;;;14.25;95.09;100107.31;4954845;28;20035;-91
2021/10/18 01:52:14;;;;;;;12.70;7.30;;;;;;;14.36;95.20;100120.16;4986901;28;20704;-90
2021/10/18 01:54:40;;;;;;;12.60;6.70;;;;;;;14.38;95.49;100112.66;4945509;28;20030;-89
2021/10/18 01:57:09;;;;;;;13.32;6.22;;;;;;;14.40;95.09;100097.06;4957315;28;20463;-91
2021/10/18 01:59:35;;;;;;;18.33;8.35;;;;;;;14.39;95.17;100100.78;4953797;28;20038;-90
2021/10/18 02:02:00;;;;;;;6.78;3.83;;;;;;;14.39;95.45;100076.44;4971820;28;20065;-91
2021/10/18 02:04:26;;;;;;;14.13;6.38;;;;;;;14.32;96.16;100088.38;4970877;28;20137;-91
2021/10/18 02:06:55;;;;;;;9.50;5.72;;;;;;;14.19;96.98;100056.81;4941016;28;20217;-91
2021/10/18 02:09:21;;;;;;;8.68;4.75;;;;;;;14.20;97.49;100055.75;4950918;28;20046;-91
2021/10/18 02:11:47;;;;;;;7.75;5.25;;;;;;;14.19;98.27;100070.34;4957321;28;20045;-91
2021/10/18 02:14:13;;;;;;;8.32;4.88;;;;;;;14.06;99.11;100061.25;4986049;28;20125;-92
2021/10/18 02:16:38;;;;;;;8.98;4.72;;;;;;;14.02;99.80;100060.00;4955285;28;20477;-92
2021/10/18 02:19:04;;;;;;;8.48;4.22;;;;;;;13.96;100.00;100054.66;4940257;28;20122;-92
2021/10/18 02:21:30;;;;;;;7.57;4.15;;;;;;;13.91;100.00;100057.16;4954477;28;20184;-92
2021/10/18 02:23:56;;;;;;;11.90;4.88;;;;;;;13.77;100.00;100046.41;4955705;28;20058;-92
2021/10/18 02:26:21;;;;;;;11.07;5.63;;;;;;;13.84;100.00;100065.31;4952088;28;20058;-93
2021/10/18 02:28:47;;;;;;;9.93;5.38;;;;;;;13.84;100.00;100057.22;4958531;28;20392;-92
2021/10/18 02:31:13;;;;;;;9.25;4.55;;;;;;;13.71;100.00;100044.56;4956406;28;20023;-94
2021/10/18 02:33:39;;;;;;;9.98;5.30;;;;;;;13.60;100.00;100032.56;4956314;28;20057;-92
2021/10/18 02:36:05;;;;;;;8.77;4.32;;;;;;;13.56;100.00;100020.50;4985923;28;20046;-94
2021/10/18 02:38:38;;;;;;;10.65;4.40;;;;;;;13.51;100.00;100016.78;4950690;28;20046;-92
2021/10/18 02:41:04;;;;;;;9.23;5.72;;;;;;;13.56;100.00;100028.63;4965196;28;20049;-92
2021/10/18 02:43:30;;;;;;;7.95;4.90;;;;;;;13.51;100.00;100016.78;4988426;28;20038;-90
2021/10/18 02:45:56;;;;;;;9.27;5.00;;;;;;;13.53;100.00;100018.25;4947189;28;20043;-92
2021/10/18 02:48:22;;;;;;;9.00;3.47;;;;;;;13.54;100.00;100029.88;4955694;28;20392;-91
2021/10/18 02:50:48;;;;;;;5.78;2.85;;;;;;;13.54;100.00;100033.41;4945029;28;20038;-93
2021/10/18 02:53:14;;;;;;;6.32;2.75;;;;;;;13.49;100.00;100002.66;4983522;28;20035;-93
2021/10/18 02:55:39;;;;;;;7.95;2.97;;;;;;;13.55;100.00;100023.44;4967373;28;20468;-92
2021/10/18 02:58:05;;;;;;;6.75;2.47;;;;;;;13.54;100.00;100024.47;4988728;28;20069;-92
2021/10/18 03:00:31;;;;;;;3.10;1.58;;;;;;;13.67;100.00;100035.22;4955571;28;20048;-93
2021/10/18 03:02:57;;;;;;;2.85;1.60;;;;;;;13.64;100.00;100014.88;4960008;28;20054;-93
2021/10/18 03:05:23;;;;;;;2.42;1.45;;;;;;;13.57;100.00;99987.03;4989803;28;20105;-92
2021/10/18 03:07:52;;;;;;;2.20;1.17;;;;;;;13.66;100.00;99989.53;4968212;28;20070;-93
2021/10/18 03:10:21;;;;;;;2.53;1.38;;;;;;;13.73;100.00;99984.91;5005528;28;20022;-92
2021/10/18 03:12:47;;;;;;;5.10;1.63;;;;;;;13.71;100.00;99971.63;4972562;28;20031;-93
2021/10/18 03:15:13;;;;;;;2.58;1.55;;;;;;;13.65;100.00;99953.56;4971672;28;20445;-92
2021/10/18 03:17:40;;;;;;;1.55;0.90;;;;;;;13.78;100.00;99969.69;4946992;28;20066;-91
2021/10/18 03:20:07;;;;;;;2.08;1.00;;;;;;;13.84;100.00;99951.81;4960908;28;20042;-91
2021/10/18 03:22:33;;;;;;;1.67;1.00;;;;;;;13.80;100.00;99946.00;4970056;28;20050;-92
2021/10/18 03:24:59;;;;;;;1.27;0.80;;;;;;;13.90;100.00;99963.63;4954276;28;20030;-91
2021/10/18 03:27:25;;;;;;;1.40;0.90;;;;;;;13.83;100.00;99936.63;4972366;28;20500;-92
2021/10/18 03:29:51;;;;;;;1.80;0.73;;;;;;;13.88;100.00;99927.88;4987176;28;20449;-93
2021/10/18 03:32:16;;;;;;;0.98;0.60;;;;;;;13.94;100.00;99927.00;4984829;28;20518;-91
2021/10/18 03:34:46;;;;;;;1.85;1.10;;;;;;;13.96;100.00;99909.53;4954320;28;20097;-91
2021/10/18 03:37:11;;;;;;;0.77;0.68;;;;;;;13.91;100.00;99887.72;4959938;28;20042;-91
2021/10/18 03:39:37;;;;;;;1.10;0.85;;;;;;;13.93;100.00;99861.31;4954942;28;20085;-92
2021/10/18 03:42:07;;;;;;;1.33;0.98;;;;;;;14.04;100.00;99879.50;4985597;28;20043;-92
2021/10/18 03:44:33;;;;;;;1.10;0.85;;;;;;;14.04;100.00;99876.81;4954969;28;20031;-93
2021/10/18 03:46:59;;;;;;;1.70;1.10;;;;;;;14.04;100.00;99876.00;4937297;28;20113;-93
2021/10/18 03:49:25;;;;;;;2.60;1.00;;;;;;;14.06;100.00;99880.13;4965868;28;20465;-93
2021/10/18 03:51:55;;;;;;;2.03;1.08;;;;;;;14.07;100.00;99854.75;4953183;28;20040;-92
2021/10/18 03:54:21;;;;;;;5.80;0.80;;;;;;;14.09;100.00;99862.66;4948298;28;20034;-94
2021/10/18 03:56:47;;;;;;;1.00;0.70;;;;;;;14.08;100.00;99861.00;4953960;28;20035;-93
2021/10/18 03:59:16;;;;;;;1.67;0.82;;;;;;;13.99;100.00;99846.09;4945274;28;20121;-93
2021/10/18 04:02:04;;;;;;;1.05;0.80;;;;;;;14.11;100.00;99857.03;4962059;28;20492;-93
2021/10/18 04:04:38;;;;;;;2.10;1.02;;;;;;;14.03;100.00;99841.91;4953413;28;20070;-94
2021/10/18 04:07:21;;;;;;;1.05;0.60;;;;;;;14.03;100.00;99853.56;4964280;28;20041;-94
2021/10/18 04:09:54;;;;;;;1.73;0.80;;;;;;;14.01;100.00;99847.53;4943675;28;20034;-94
2021/10/18 04:12:44;;;;;;;0.88;0.70;;;;;;;14.03;100.00;99845.44;4954369;28;20026;-93
2021/10/18 04:15:21;;;;;;;1.27;0.80;;;;;;;14.11;100.00;99851.63;4967279;28;20078;-93
2021/10/18 04:18:19;;;;;;;1.65;0.80;;;;;;;14.00;100.00;99820.75;4979385;28;20031;-95
2021/10/18 04:21:06;;;;;;;0.60;0.50;;;;;;;13.98;100.00;99801.22;4949686;28;20688;-94
2021/10/18 04:24:02;;;;;;;0.50;0.50;;;;;;;14.03;100.00;99818.41;4959154;28;20101;-94
2021/10/18 04:26:40;;;;;;;1.25;0.70;;;;;;;14.06;100.00;99790.94;4968033;28;20039;-94
2021/10/18 04:29:12;;;;;;;2.80;0.60;;;;;;;14.02;100.00;99795.13;4987237;28;20031;-95
2021/10/18 04:31:40;;;;;;;1.85;0.70;;;;;;;14.11;100.00;99798.38;4985822;28;20042;-93
2021/10/18 04:34:27;;;;;;;0.70;0.60;;;;;;;14.07;100.00;99800.69;4969326;28;20043;-93
2021/10/18 04:36:57;;;;;;;0.80;0.70;;;;;;;13.99;100.00;99805.56;4951993;28;20042;-94
2021/10/18 04:39:23;;;;;;;3.70;0.90;;;;;;;14.16;100.00;99840.97;4986164;28;20038;-93
2021/10/18 04:41:56;;;;;;;0.93;0.63;;;;;;;14.10;100.00;99829.16;4955725;28;20038;-94
2021/10/18 04:44:47;;;;;;;;;;;;;;;14.20;100.00;99839.47;4953385;28;20039;-94
2021/10/18 04:47:15;;;;;;;0.75;0.57;;;;;;;14.01;100.00;99798.88;4954901;28;20012;-94
2021/10/18 04:49:54;;;;;;;;;;;;;;;;;;;;;
2021/10/18 04:52:27;;;;;;;0.77;0.70;;;;;;;14.00;100.00;99810.75;4971728;28;20496;-93
2021/10/18 04:55:06;;;;;;;1.20;0.63;;;;;;;13.98;100.00;99815.53;4954522;28;20307;-94
2021/10/18 04:57:56;;;;;;;1.05;0.60;;;;;;;13.91;100.00;99803.13;4947501;28;20039;-92
2021/10/18 05:00:47;;;;;;;3.35;0.90;;;;;;;13.98;100.00;99812.03;4969098;28;20039;-94
2021/10/18 05:03:43;;;;;;;2.05;1.10;;;;;;;13.84;100.00;99804.03;4939540;28;20381;-94
2021/10/18 05:06:24;;;;;;;1.23;0.93;;;;;;;13.86;100.00;99817.28;4974215;28;20193;-95
2021/10/18 05:08:58;;;;;;;2.55;0.85;;;;;;;13.82;100.00;99822.31;4986281;28;20047;-95
2021/10/18 05:11:36;;;;;;;1.60;1.00;;;;;;;13.74;100.00;99814.50;4951282;28;20031;-95
2021/10/18 05:14:37;;;;;;;2.35;1.08;;;;;;;13.83;100.00;99844.75;4942977;28;20516;-95
2021/10/18 05:18:05;;;;;;;;;;;;;;;;;;;;;
2021/10/18 05:20:40;;;;;;;;;;;;;;;13.81;100.00;99853.09;4952259;28;20122;-92
2021/10/18 05:23:39;;;;;;;2.05;0.90;;;;;;;13.69;100.00;99854.03;4978286;28;19918;-94
2021/10/18 05:26:08;;;;;;;2.08;1.40;;;;;;;13.65;100.00;99842.81;4987703;28;20125;-94
2021/10/18 05:28:46;;;;;;;1.35;0.90;;;;;;;13.70;100.00;99847.56;4955408;28;20038;-94
2021/10/18 05:31:28;;;;;;;5.93;1.00;;;;;;;13.56;100.00;99827.91;4986676;28;20031;-94
2021/10/18 05:34:00;;;;;;;0.80;0.70;;;;;;;13.53;100.00;99840.00;4958444;28;20046;-93
2021/10/18 05:37:05;;;;;;;1.42;0.90;;;;;;;13.43;100.00;99830.72;4952764;28;20043;-94
2021/10/18 05:39:55;;;;;;;2.85;0.90;;;;;;;13.46;100.00;99838.38;4949055;28;20055;-93
2021/10/18 05:43:09;;;;;;;0.75;0.55;;;;;;;13.44;100.00;99829.66;4957429;28;20039;-94
2021/10/18 05:45:33;;;;;;;1.00;0.88;;;;;;;13.49;100.00;99851.44;4987952;28;20493;-95
2021/10/18 05:48:22;;;;;;;1.77;0.90;;;;;;;13.42;100.00;99848.78;4958398;28;20118;-94
2021/10/18 05:50:51;;;;;;;1.58;1.00;;;;;;;13.32;100.00;99837.63;4960267;28;20275;-94
2021/10/18 05:53:41;;;;;;;;;;;;;;;;;;;;;
2021/10/18 05:56:35;;;;;;;1.45;0.88;;;;;;;13.25;100.00;99834.09;4974311;28;20327;-94
2021/10/18 05:59:14;;;;;;;1.48;0.80;;;;;;;13.31;100.00;99831.41;4954980;28;20038;-94
2021/10/18 06:02:16;;;;;;;1.55;0.80;;;;;;;13.21;100.00;99812.13;4956620;28;20381;-95
2021/10/18 06:05:10;;;;;;;1.00;0.70;;;;;;;13.22;100.00;99812.94;4957631;28;20086;-94
2021/10/18 06:08:09;;;;;;;1.85;0.70;;;;;;;13.28;100.00;99841.78;4952103;28;20416;-95
2021/10/18 06:11:03;;;;;;;1.08;0.80;;;;;;;13.28;100.00;99839.09;4962926;28;20202;-94
2021/10/18 06:13:41;;;;;;;0.52;0.52;;;;;;;13.17;100.00;99824.38;4937778;28;20488;-95
2021/10/18 06:16:11;;;;;;;0.73;0.60;;;;;;;13.24;100.00;99841.38;4970351;28;20064;-93
2021/10/18 06:18:39;;;;;;;1.05;0.80;;;;;;;13.37;100.00;99848.59;4956507;28;20034;-93
2021/10/18 06:21:20;;;;;;;1.00;0.73;;;;;;;13.37;100.00;99843.22;4940163;28;20399;-93
2021/10/18 06:23:54;;;;;;;2.55;0.77;;;;;;;13.23;100.00;99830.78;4972998;28;20181;-96
2021/10/18 06:26:35;;;;;;;;;;;;;;;;;;;;;
2021/10/18 06:29:13;;;;;;;1.75;0.50;;;;;;;13.30;100.00;99831.59;4975517;28;20133;-95
2021/10/18 06:31:45;;;;;;;0.80;0.80;;;;;;;13.32;100.00;99830.34;4989396;28;20043;-95
2021/10/18 06:34:48;;;;;;;1.00;0.82;;;;;;;13.38;100.00;99834.88;4970320;28;20050;-94
2021/10/18 06:37:20;;;;;;;0.63;0.57;;;;;;;13.35;100.00;99827.22;4955916;28;20121;-94
2021/10/18 06:39:49;;;;;;;1.02;0.68;;;;;;;13.49;100.00;99857.66;4988152;28;20050;-94
2021/10/18 06:42:18;;;;;;;0.80;0.60;;;;;;;13.32;100.00;99811.44;4946009;28;20076;-94
2021/10/18 06:45:15;;;;;;;0.80;0.80;;;;;;;13.48;100.00;99828.19;4957758;28;20043;-95
2021/10/18 06:47:50;;;;;;;1.38;0.60;;;;;;;13.56;100.00;99827.91;4970737;28;20078;-94
2021/10/18 06:50:30;;;;;;;3.75;0.82;;;;;;;13.40;100.00;99811.19;4966775;28;20389;-94
2021/10/18 06:53:09;;;;;;;1.98;0.60;;;;;;;13.44;100.00;99808.88;4951055;28;20174;-94
2021/10/18 06:56:03;;;;;;;0.93;0.60;;;;;;;13.60;100.00;99835.38;4987255;28;20554;-95
2021/10/18 06:58:55;;;;;;;0.60;0.50;;;;;;;13.47;100.00;99816.56;4965294;28;20038;-94
2021/10/18 07:01:24;;;;;;;2.17;0.63;;;;;;;13.56;100.00;99826.03;4953367;28;20039;-95
2021/10/18 07:03:54;;;;;;;1.15;0.70;;;;;;;13.59;100.00;99830.19;4964661;28;20047;-94
2021/10/18 07:06:28;;;;;;;1.30;0.82;;;;;;;13.49;100.00;99810.91;4955356;28;20034;-94
2021/10/18 07:08:54;;;;;;;1.90;0.70;;;;;;;13.65;100.00;99837.41;4941063;28;20137;-93
2021/10/18 07:11:23;;;;;;;3.50;0.80;;;;;;;13.64;100.00;99839.28;4954868;28;20121;-93
2021/10/18 07:13:51;;;;;;;2.40;0.70;;;;;;;13.53;100.00;99814.84;4985513;28;20411;-93
2021/10/18 07:16:32;;;;;;;3.28;0.60;;;;;;;13.63;100.00;99828.72;4968086;28;20035;-93
2021/10/18 07:19:03;;;;;;;0.80;0.60;;;;;;;13.61;100.00;99826.22;4972590;28;20034;-93
2021/10/18 07:21:39;;;;;;;;;;;;;;;;;;;;;
2021/10/18 07:24:15;;;;;;;0.70;0.60;;;;;;;13.74;100.00;99840.69;4989125;28;20126;-91
2021/10/18 07:26:41;;;;;;;0.60;0.60;;;;;;;13.69;100.00;99822.44;4959289;28;20038;-92
2021/10/18 07:29:10;;;;;;;0.40;0.40;;;;;;;13.82;100.00;99835.00;4955563;28;20106;-92
2021/10/18 07:31:41;;;;;;;2.83;0.95;;;;;;;13.82;100.00;99822.31;4957795;28;20066;-92
2021/10/18 07:34:13;;;;;;;0.57;0.57;;;;;;;13.84;100.00;99824.81;4957828;28;20066;-92
2021/10/18 07:36:50;;;;;;;0.90;0.60;;;;;;;13.87;100.00;99824.38;4947469;28;20043;-92
2021/10/18 07:39:18;;;;;;;0.60;0.60;;;;;;;14.10;100.00;99847.25;4957638;28;20043;-93
2021/10/18 07:41:51;;;;;;;1.38;0.95;;;;;;;14.07;100.00;99837.72;4986961;28;20054;-92
2021/10/18 07:44:20;;;;;;;5.82;2.38;;;;;;;14.19;100.00;99844.06;4955885;28;20039;-91
2021/10/18 07:46:55;;;;;;;2.55;1.30;;;;;;;14.24;100.00;99851.50;4952331;28;20038;-93
2021/10/18 07:49:27;;;;;;;6.00;2.83;;;;;;;14.20;100.00;99834.88;4955142;28;20053;-93
2021/10/18 07:51:54;;;;;;;3.42;1.33;;;;;;;14.27;100.00;99845.66;4955412;28;20049;-93
2021/10/18 07:54:23;;;;;;;3.13;1.90;;;;;;;14.25;100.00;99829.63;4956455;28;20030;-94
2021/10/18 07:56:54;;;;;;;1.80;1.13;;;;;;;14.24;100.00;99824.47;4956452;28;20471;-93
2021/10/18 07:59:20;;;;;;;6.18;3.30;;;;;;;14.16;100.00;99812.06;4972344;28;20118;-94
2021/10/18 08:01:48;;;;;;;2.90;1.50;;;;;;;14.16;100.00;99833.69;4963143;28;20145;-93
2021/10/18 08:04:21;;;;;;;3.60;2.47;;;;;;;14.13;100.00;99836.84;4950268;28;20471;-93
2021/10/18 08:06:49;;;;;;;6.63;2.50;;;;;;;14.03;100.00;99828.41;4946728;28;20038;-93
2021/10/18 08:09:26;;;;;;;1.40;0.90;;;;;;;14.02;100.00;99838.34;4954913;28;20047;-94
2021/10/18 08:12:05;;;;;;;3.05;1.35;;;;;;;14.05;100.00;99834.38;4958733;28;20129;-93
2021/10/18 08:14:31;;;;;;;3.53;2.38;;;;;;;14.15;100.00;99852.81;4989091;28;20051;-92
2021/10/18 08:17:04;;;;;;;3.60;1.83;;;;;;;14.17;100.00;99856.97;4950046;28;20031;-92
2021/10/18 08:19:32;;;;;;;1.20;0.90;;;;;;;14.17;100.00;99856.97;4974414;28;20464;-93
2021/10/18 08:21:58;;;;;;;2.58;1.52;;;;;;;14.14;100.00;99849.28;4967549;28;20046;-94
2021/10/18 08:24:34;;;;;;;5.25;1.30;;;;;;;14.18;100.00;99852.38;4938310;28;20023;-93
2021/10/18 08:27:29;;;;;;;4.35;1.27;;;;;;;14.35;100.00;99868.88;4983344;28;20018;-95
2021/10/18 09:16:45;;;;;;;0.77;0.60;;;;;;;15.23;100.00;99886.69;4932452;23;20313;-96
2021/10/18 09:19:34;;;;;;;1.25;0.80;;;;;;;15.43;100.00;99873.72;4919774;29;20059;-96
2021/10/18 09:22:24;;;;;;;0.80;0.80;;;;;;;15.67;100.00;99888.16;4904779;29;20083;-96
2021/10/18 09:25:33;;;;;;;1.63;0.90;;;;;;;15.77;100.00;99880.34;4909559;29;20059;-96
2021/10/18 09:28:14;;;;;;;2.90;0.80;;;;;;;15.96;100.00;99888.41;4916773;29;20052;-95
2021/10/18 09:30:45;;;;;;;0.98;0.75;;;;;;;16.11;100.00;99899.63;4908874;29;20496;-96
2021/10/18 09:33:33;;;;;;;2.08;0.80;;;;;;;16.19;100.00;99917.44;4926970;29;20098;-96
2021/10/18 09:36:18;;;;;;;2.83;0.80;;;;;;;16.20;100.00;99910.97;4913452;29;20126;-95
2021/10/18 09:39:02;;;;;;;;;;;;;;;;;;;;;
2021/10/18 10:53:27;;;;;;;2.85;0.98;;;;;;;16.99;99.92;99995.66;4902068;29;20036;-93
2021/10/18 10:55:59;;;;;;;4.65;2.10;;;;;;;16.95;99.84;99991.75;4904324;29;20031;-94
2021/10/18 10:58:32;;;;;;;5.05;1.70;;;;;;;17.14;99.07;100011.47;4900357;29;20075;-94
2021/10/18 11:00:58;;;;;;;;;;;;;;;17.36;98.00;100033.44;4908832;29;20039;-95
2021/10/18 11:03:45;;;;;;;8.10;2.42;;;;;;;17.40;97.38;100012.84;4914172;29;19919;-93
2021/10/18 11:06:19;;;;;;;9.93;1.83;;;;;;;17.36;95.45;99988.06;4917791;29;20094;-92
2021/10/18 11:08:46;;;;;;;10.80;1.58;;;;;;;17.64;93.59;99991.06;4887789;29;20035;-94
2021/10/18 11:11:17;;;;;;;9.65;2.83;;;;;;;17.61;93.85;99996.97;4910258;29;20038;-94
2021/10/18 11:14:01;;;;;;;13.45;2.28;;;;;;;17.59;93.62;100019.78;4888257;29;20043;-96
2021/10/18 11:16:29;;;;;;;12.02;3.60;;;;;;;17.61;93.72;100030.41;4903357;29;20044;-94
2021/10/18 11:19:04;;;;;;;11.15;2.00;;;;;;;17.57;93.78;100021.94;4911981;29;20493;-93
2021/10/18 11:21:36;;;;;;;12.00;3.05;;;;;;;17.76;93.47;100029.91;4903889;29;20059;-93
2021/10/18 11:24:08;;;;;;;14.07;4.35;;;;;;;17.74;93.11;100027.44;4911027;29;20036;-94
2021/10/18 11:26:39;;;;;;;9.35;3.83;;;;;;;17.91;93.00;100038.41;4897463;29;20474;-93
2021/10/18 11:29:13;;;;;;;13.20;2.97;;;;;;;18.01;92.89;100041.31;4914808;29;20035;-95
2021/10/18 11:31:43;;;;;;;6.90;2.80;;;;;;;17.85;93.68;100036.66;4896441;29;20118;-95
2021/10/18 11:34:16;;;;;;;11.50;2.28;;;;;;;17.83;93.06;100040.69;4888468;29;20062;-94
2021/10/18 11:36:51;;;;;;;10.18;1.90;;;;;;;17.85;92.72;100063.84;4903452;29;20063;-94
2021/10/18 11:39:22;;;;;;;12.63;3.60;;;;;;;17.77;93.16;100053.31;4905383;29;20044;-94
2021/10/18 11:42:05;;;;;;;10.00;3.42;;;;;;;17.93;92.58;100063.47;4917857;29;20397;-94
2021/10/18 11:44:58;;;;;;;;;;;;;;;18.00;92.63;100058.72;4908090;29;20063;-94
2021/10/18 11:48:07;;;;;;;17.52;5.85;;;;;;;17.93;91.77;100052.59;4933836;29;20384;-95
2021/10/18 11:50:52;;;;;;;12.57;3.42;;;;;;;18.06;91.27;100053.38;4928489;29;20126;-95
2021/10/18 11:53:51;;;;;;;16.70;3.90;;;;;;;17.98;91.44;100041.00;4921196;29;20428;-94
2021/10/18 11:56:23;;;;;;;10.68;2.40;;;;;;;18.19;90.19;100029.41;4904219;29;20449;-96
2021/10/18 11:58:52;;;;;;;12.75;2.50;;;;;;;18.53;88.67;100042.28;4902120;29;20040;-95
2021/10/18 12:01:27;;;;;;;7.93;2.63;;;;;;;18.62;88.62;100040.78;4904255;29;20050;-94
2021/10/18 12:04:06;;;;;;;14.35;3.65;;;;;;;18.67;87.80;100052.59;4891699;29;20123;-94
2021/10/18 12:06:48;;;;;;;4.45;2.10;;;;;;;18.63;87.20;100040.56;4882523;29;20044;-94
2021/10/18 12:09:35;;;;;;;9.35;2.50;;;;;;;18.86;87.18;100036.03;4900451;29;20047;-95
2021/10/18 12:12:16;;;;;;;8.15;2.35;;;;;;;18.89;85.84;100036.38;4896831;29;20047;-94
2021/10/18 12:15:00;;;;;;;6.32;2.20;;;;;;;18.87;85.85;100033.06;4892500;29;20071;-95
2021/10/18 12:17:29;;;;;;;8.40;2.40;;;;;;;18.78;86.52;100029.09;4902977;29;20034;-94
2021/10/18 12:20:00;;;;;;;9.75;2.08;;;;;;;18.96;86.96;100054.44;4892788;29;20094;-94
2021/10/18 12:22:25;;;;;;;7.68;1.80;;;;;;;19.15;86.17;100053.09;4885117;29;20028;-94
2021/10/18 12:25:02;;;;;;;11.38;1.83;;;;;;;19.03;86.21;100038.75;4886483;29;20059;-94
2021/10/18 12:27:28;;;;;;;4.28;1.10;;;;;;;18.73;87.01;100033.59;4902863;29;20122;-94
2021/10/18 12:29:57;;;;;;;6.57;1.52;;;;;;;18.51;88.01;100052.56;4901770;29;20078;-95
2021/10/18 12:32:23;;;;;;;6.97;1.60;;;;;;;18.27;89.00;100049.97;4910531;29;20063;-94
2021/10/18 12:35:01;;;;;;;8.98;1.60;;;;;;;18.08;89.98;100043.09;4886759;29;20051;-94
2021/10/18 12:37:27;;;;;;;7.22;1.65;;;;;;;17.90;91.35;100050.34;4901403;29;20164;-94
2021/10/18 12:39:56;;;;;;;15.70;3.20;;;;;;;17.92;91.42;100059.09;4898602;29;20482;-94
2021/10/18 12:42:25;;;;;;;7.60;1.90;;;;;;;17.93;91.48;100068.91;4919110;29;20040;-94
2021/10/18 12:45:02;;;;;;;9.05;1.40;;;;;;;17.79;92.05;100032.19;4918722;29;20032;-93
2021/10/18 12:47:29;;;;;;;5.10;1.45;;;;;;;17.91;91.80;100057.44;4886934;29;20036;-95
2021/10/18 12:50:07;;;;;;;5.00;0.90;;;;;;;18.10;90.00;100085.31;4912492;29;20070;-94
2021/10/18 12:52:34;;;;;;;4.13;1.05;;;;;;;18.00;90.38;100075.03;4884107;29;20035;-93
2021/10/18 12:55:11;;;;;;;6.47;1.60;;;;;;;18.00;89.20;100058.72;4902112;29;20039;-94
2021/10/18 12:57:49;;;;;;;7.85;1.65;;;;;;;18.19;88.64;100067.50;4903595;29;20107;-92
2021/10/18 13:00:18;;;;;;;3.55;1.58;;;;;;;18.28;88.90;100073.38;4901289;29;20036;-93
2021/10/18 13:02:46;;;;;;;3.78;1.90;;;;;;;18.38;88.55;100079.03;4896079;29;20032;-94
2021/10/18 13:05:25;;;;;;;2.38;1.33;;;;;;;18.59;87.66;100068.50;4887106;29;20031;-94
2021/10/18 13:08:02;;;;;;;2.60;1.70;;;;;;;18.72;86.91;100043.69;4904761;29;20095;-94
2021/10/18 13:10:29;;;;;;;3.78;1.77;;;;;;;18.95;85.74;100071.88;4914690;29;20061;-94
2021/10/18 13:12:56;;;;;;;2.75;1.83;;;;;;;18.86;85.51;100075.00;4885823;29;20043;-92
2021/10/18 13:15:22;;;;;;;4.10;1.60;;;;;;;18.87;84.63;100057.59;4902128;29;20059;-93
2021/10/18 13:17:50;;;;;;;2.53;2.03;;;;;;;18.84;84.16;100079.88;4910128;29;20036;-92
2021/10/18 13:20:18;;;;;;;2.35;1.60;;;;;;;18.65;83.69;100072.97;4902677;29;20102;-92
2021/10/18 13:22:45;;;;;;;2.10;1.70;;;;;;;18.46;83.79;100073.19;4889633;29;20083;-92
2021/10/18 13:25:12;;;;;;;2.25;1.42;;;;;;;18.44;83.05;100072.63;4902868;29;20099;-93
2021/10/18 13:27:38;;;;;;;3.05;1.50;;;;;;;18.57;81.99;100067.91;4894074;29;20408;-93
2021/10/18 13:30:07;;;;;;;3.00;1.80;;;;;;;18.75;81.64;100078.63;4919015;29;20047;-92
2021/10/18 13:32:38;;;;;;;2.15;1.70;;;;;;;18.77;80.96;100078.38;4905831;29;20039;-92
2021/10/18 13:35:05;;;;;;;3.08;1.50;;;;;;;18.83;80.63;100080.94;4908642;29;20126;-92
2021/10/18 13:37:31;;;;;;;2.80;1.20;;;;;;;18.96;80.22;100109.75;4890386;29;20063;-94
2021/10/18 13:39:57;;;;;;;3.15;1.30;;;;;;;18.92;80.18;100095.00;4914367;29;20042;-93
2021/10/18 13:42:23;;;;;;;2.92;1.30;;;;;;;19.18;79.73;100096.19;4905646;29;20039;-93
2021/10/18 13:44:50;;;;;;;1.77;1.40;;;;;;;19.27;79.48;100096.63;4916097;29;20135;-94
2021/10/18 13:47:17;;;;;;;1.67;0.70;;;;;;;19.04;77.28;100084.00;4888852;29;20065;-93
2021/10/18 13:49:43;;;;;;;2.50;1.25;;;;;;;19.01;78.07;100122.66;4896984;29;20075;-93
2021/10/18 13:52:09;;;;;;;1.63;1.00;;;;;;;18.99;77.83;100125.59;4908902;29;20047;-94
2021/10/18 13:54:34;;;;;;;1.88;0.95;;;;;;;18.98;77.26;100101.34;4889718;29;20130;-93
2021/10/18 13:57:01;;;;;;;2.72;0.90;;;;;;;19.10;77.06;100115.69;4901524;29;20116;-94
2021/10/18 13:59:27;;;;;;;2.28;1.23;;;;;;;19.08;76.67;100106.97;4918899;29;20059;-92